Time;durP1;ratioP1;P1;durP2;ratioP2;P2;SDS_P1;SDS_P2;PMS_P1;PMS_P2;Temp;Humidity;BMP_temperature;BMP_pressure;BME280_temperature;BME280_humidity;BME280_pressure;Samples;Min_cycle;Max_cycle;Signal;HPM_P1;HPM_P2
2023/03/22 00:01:19;;;;;;;5.50;2.83;;;10.20;99.90;;;;;;4988978;28;20033;-64
2023/03/22 00:03:47;;;;;;;6.53;3.00;;;10.20;99.90;;;;;;4988927;28;20716;-65
2023/03/22 00:06:13;;;;;;;4.57;2.50;;;10.20;99.90;;;;;;4990065;28;20034;-64
2023/03/22 00:08:39;;;;;;;5.18;1.98;;;10.30;99.90;;;;;;4989435;28;20133;-65
2023/03/22 00:11:06;;;;;;;7.20;3.17;;;10.30;99.90;;;;;;5005935;28;20034;-65
2023/03/22 00:13:35;;;;;;;4.18;2.33;;;10.30;99.90;;;;;;4990069;28;20371;-67
2023/03/22 00:16:01;;;;;;;6.18;2.72;;;10.30;99.90;;;;;;5005294;28;20057;-65
2023/03/22 00:18:28;;;;;;;5.15;2.47;;;10.30;99.90;;;;;;5008808;28;20120;-65
2023/03/22 00:20:57;;;;;;;8.88;2.88;;;10.30;99.90;;;;;;4970503;28;20066;-65
2023/03/22 00:23:24;;;;;;;4.18;2.40;;;10.40;99.90;;;;;;4990603;28;20034;-65
2023/03/22 00:25:50;;;;;;;10.93;2.72;;;10.40;99.90;;;;;;4978323;28;20036;-66
2023/03/22 00:28:17;;;;;;;9.25;2.33;;;10.30;99.90;;;;;;4991217;28;20037;-65
2023/03/22 00:31:08;;;;;;;3.95;2.45;;;10.30;99.90;;;;;;4985982;28;20022;-65
2023/03/22 00:33:35;;;;;;;3.88;2.10;;;10.30;99.90;;;;;;5007302;28;20038;-65
2023/03/22 00:36:07;;;;;;;5.70;2.75;;;10.30;99.90;;;;;;4987667;28;20034;-65
2023/03/22 00:38:38;;;;;;;14.45;3.00;;;10.30;99.90;;;;;;4990270;28;20065;-65
2023/03/22 00:41:11;;;;;;;4.32;2.72;;;10.30;99.90;;;;;;4988454;28;20512;-65
2023/03/22 00:43:37;;;;;;;3.78;2.03;;;10.30;99.90;;;;;;5005869;28;20045;-65
2023/03/22 00:46:04;;;;;;;4.93;2.55;;;10.30;99.90;;;;;;5004954;28;20101;-66
2023/03/22 00:48:30;;;;;;;6.93;3.40;;;10.30;99.90;;;;;;5006785;28;20129;-65
2023/03/22 00:50:56;;;;;;;4.50;2.15;;;10.30;99.90;;;;;;5003898;28;20722;-65
2023/03/22 00:53:22;;;;;;;4.85;2.65;;;10.30;99.90;;;;;;5008554;28;20099;-65
2023/03/22 00:55:47;;;;;;;4.00;2.50;;;10.40;99.90;;;;;;4985526;28;20033;-65
2023/03/22 00:58:13;;;;;;;5.10;3.03;;;10.40;99.90;;;;;;5008331;28;20034;-65
2023/03/22 01:00:39;;;;;;;4.88;2.60;;;10.40;99.90;;;;;;5002714;28;20034;-65
2023/03/22 01:03:05;;;;;;;6.85;2.83;;;10.40;99.90;;;;;;5008309;28;20470;-65
2023/03/22 01:05:33;;;;;;;4.22;2.42;;;10.40;99.90;;;;;;5002811;28;20438;-65
2023/03/22 01:08:07;;;;;;;6.43;2.95;;;10.30;99.90;;;;;;5007076;28;20393;-66
2023/03/22 01:10:38;;;;;;;4.93;2.60;;;10.30;99.90;;;;;;5002855;28;20026;-66
2023/03/22 01:13:05;;;;;;;5.70;2.45;;;10.30;99.90;;;;;;4979813;28;20050;-66
2023/03/22 01:15:31;;;;;;;5.28;2.25;;;10.30;99.90;;;;;;4996801;28;20026;-66
2023/03/22 01:17:57;;;;;;;6.90;2.22;;;10.30;99.90;;;;;;4977685;28;20480;-65
2023/03/22 01:20:23;;;;;;;3.92;2.15;;;10.20;99.90;;;;;;5002500;28;20037;-66
2023/03/22 01:22:49;;;;;;;5.35;2.42;;;10.20;99.90;;;;;;5004387;28;20757;-65
2023/03/22 01:25:15;;;;;;;5.40;2.95;;;10.10;99.90;;;;;;4994491;28;20533;-66
2023/03/22 01:27:41;;;;;;;3.45;2.20;;;10.10;99.90;;;;;;4991681;28;20022;-66
2023/03/22 01:30:07;;;;;;;4.43;2.17;;;10.10;99.90;;;;;;4985129;28;20083;-65
2023/03/22 01:32:36;;;;;;;4.75;2.85;;;10.10;99.90;;;;;;5008165;28;20034;-65
2023/03/22 01:35:03;;;;;;;5.50;2.08;;;10.20;99.90;;;;;;5002168;28;20565;-65
2023/03/22 01:37:29;;;;;;;5.53;2.35;;;10.10;99.90;;;;;;4990583;28;20100;-65
2023/03/22 01:39:54;;;;;;;5.40;2.42;;;10.10;99.90;;;;;;5002454;28;20098;-65
2023/03/22 01:42:22;;;;;;;5.70;2.35;;;10.10;99.90;;;;;;4991082;28;20037;-65
2023/03/22 01:45:13;;;;;;;6.22;2.72;;;10.20;99.90;;;;;;5001831;28;20063;-65
2023/03/22 01:47:53;;;;;;;2.93;1.77;;;10.20;99.90;;;;;;5007741;28;20545;-65
2023/03/22 01:50:20;;;;;;;3.47;1.80;;;10.20;99.90;;;;;;4969559;28;20335;-65
2023/03/22 01:52:49;;;;;;;6.35;2.83;;;10.20;99.90;;;;;;5007713;28;20083;-65
2023/03/22 01:55:17;;;;;;;5.80;2.70;;;10.20;99.90;;;;;;4985053;28;20101;-65
2023/03/22 01:57:44;;;;;;;6.60;2.00;;;10.20;99.90;;;;;;4973758;28;20026;-65
2023/03/22 02:00:14;;;;;;;4.85;2.50;;;10.20;99.90;;;;;;4984904;28;20068;-65
2023/03/22 02:02:42;;;;;;;4.05;2.35;;;10.20;99.90;;;;;;5006206;28;20077;-66
2023/03/22 02:05:08;;;;;;;4.65;2.92;;;10.20;99.90;;;;;;4991927;28;20023;-65
2023/03/22 02:07:37;;;;;;;6.90;3.17;;;10.10;99.90;;;;;;4986519;28;20077;-66
2023/03/22 02:10:03;;;;;;;7.75;3.10;;;10.10;99.90;;;;;;4978954;28;20026;-66
2023/03/22 02:13:07;;;;;;;3.85;2.25;;;10.20;99.90;;;;;;4958391;28;20096;-66
2023/03/22 02:16:16;;;;;;;8.68;2.40;;;10.10;99.90;;;;;;4993673;28;20375;-66
2023/03/22 02:19:28;;;;;;;3.42;2.42;;;10.10;99.90;;;;;;4998231;28;20497;-66
2023/03/22 02:22:13;;;;;;;4.25;2.22;;;10.10;99.90;;;;;;4971395;28;20105;-66
2023/03/22 02:25:34;;;;;;;4.88;2.40;;;10.10;99.90;;;;;;5005611;28;20033;-66
2023/03/22 02:28:35;;;;;;;5.40;2.47;;;10.20;99.90;;;;;;4998621;28;20030;-66
2023/03/22 02:31:23;;;;;;;5.90;2.17;;;10.20;99.90;;;;;;5000895;28;20053;-67
2023/03/22 02:34:17;;;;;;;6.47;2.20;;;10.20;99.90;;;;;;4989779;28;20033;-64
2023/03/22 02:37:00;;;;;;;4.65;2.50;;;10.20;99.90;;;;;;4998000;28;20037;-64
2023/03/22 02:39:52;;;;;;;4.15;2.40;;;10.20;99.90;;;;;;4984387;28;20061;-65
2023/03/22 02:42:48;;;;;;;4.05;2.35;;;10.20;99.90;;;;;;4995299;28;20184;-67
2023/03/22 02:45:26;;;;;;;7.32;3.08;;;10.30;99.90;;;;;;4996895;28;20374;-67
2023/03/22 02:48:22;;;;;;;5.45;2.47;;;10.30;99.90;;;;;;4979836;28;20036;-65
2023/03/22 02:51:08;;;;;;;6.43;2.90;;;10.20;99.90;;;;;;4990264;28;20123;-65
2023/03/22 02:53:58;;;;;;;5.13;2.35;;;10.20;99.90;;;;;;4990992;28;20486;-66
2023/03/22 02:56:48;;;;;;;4.28;2.53;;;10.20;99.90;;;;;;5009950;28;20050;-66
2023/03/22 02:59:16;;;;;;;5.75;2.78;;;10.20;99.90;;;;;;4987103;28;20030;-65
2023/03/22 03:01:52;;;;;;;4.63;2.78;;;10.20;99.90;;;;;;4994771;28;20065;-66
2023/03/22 03:04:29;;;;;;;5.40;2.53;;;10.20;99.90;;;;;;4985662;28;20038;-66
2023/03/22 03:07:08;;;;;;;5.68;2.78;;;10.20;99.90;;;;;;4956975;28;20030;-66
2023/03/22 03:09:38;;;;;;;6.75;2.67;;;10.20;99.90;;;;;;4992800;23;20042;-66
2023/03/22 03:12:23;;;;;;;6.00;2.55;;;10.20;99.90;;;;;;4993199;28;20034;-66
2023/03/22 03:14:49;;;;;;;6.18;2.15;;;10.20;99.90;;;;;;4990411;28;20437;-66
2023/03/22 03:17:42;;;;;;;5.85;2.72;;;10.20;99.90;;;;;;4980369;28;20097;-66
2023/03/22 03:20:37;;;;;;;5.03;2.33;;;10.20;99.90;;;;;;5001202;28;20070;-66
2023/03/22 03:23:33;;;;;;;5.65;2.38;;;10.20;99.90;;;;;;4974059;28;20038;-65
2023/03/22 03:26:10;;;;;;;3.15;1.85;;;10.30;99.90;;;;;;4980471;28;20027;-66
2023/03/22 03:29:41;;;;;;;4.70;2.60;;;10.20;99.90;;;;;;4974945;28;20059;-66
2023/03/22 03:32:19;;;;;;;7.20;2.57;;;10.30;99.90;;;;;;4962787;28;20048;-65
2023/03/22 03:34:59;;;;;;;3.22;1.83;;;10.30;99.90;;;;;;4999994;28;20307;-65
2023/03/22 03:37:42;;;;;;;5.45;2.67;;;10.30;99.90;;;;;;4993007;28;20373;-65
2023/03/22 03:40:18;;;;;;;6.95;2.20;;;10.20;99.90;;;;;;5001021;28;20043;-65
2023/03/22 03:42:50;;;;;;;3.35;2.17;;;10.20;99.90;;;;;;4995082;28;20022;-65
2023/03/22 03:45:18;;;;;;;5.05;2.50;;;10.20;99.90;;;;;;4983107;28;20034;-65
2023/03/22 03:47:46;;;;;;;3.97;2.05;;;10.20;99.90;;;;;;5011899;28;20493;-65
2023/03/22 03:50:15;;;;;;;3.63;2.03;;;10.20;99.90;;;;;;4982994;28;20042;-65
2023/03/22 03:52:41;;;;;;;4.20;2.20;;;10.10;99.90;;;;;;4977418;28;20034;-65
2023/03/22 03:55:08;;;;;;;7.53;2.90;;;10.10;99.90;;;;;;5000627;28;20034;-65
2023/03/22 03:57:34;;;;;;;6.50;2.55;;;10.10;99.90;;;;;;5010087;28;20029;-65
2023/03/22 03:59:59;;;;;;;6.65;2.88;;;10.10;99.90;;;;;;4999679;28;20053;-65
2023/03/22 04:02:25;;;;;;;8.13;2.45;;;10.00;99.90;;;;;;5008743;28;20112;-66
2023/03/22 04:04:51;;;;;;;4.68;2.60;;;10.00;99.90;;;;;;5002509;28;20536;-65
2023/03/22 04:07:16;;;;;;;3.92;2.20;;;10.00;99.90;;;;;;4990212;28;20030;-65
2023/03/22 04:09:42;;;;;;;7.05;2.67;;;10.00;99.90;;;;;;5003909;28;20417;-65
2023/03/22 04:12:10;;;;;;;9.73;3.17;;;10.00;99.90;;;;;;4988889;28;20033;-65
2023/03/22 04:14:36;;;;;;;5.22;2.45;;;10.00;99.90;;;;;;4987539;28;20524;-65
2023/03/22 04:17:02;;;;;;;9.18;3.67;;;10.00;99.90;;;;;;4965034;28;20050;-65
2023/03/22 04:19:28;;;;;;;4.53;2.30;;;9.90;99.90;;;;;;4982602;28;20064;-65
2023/03/22 04:21:54;;;;;;;5.72;2.75;;;9.90;99.90;;;;;;4970399;28;20117;-65
2023/03/22 04:24:21;;;;;;;5.63;2.60;;;9.90;99.90;;;;;;5005988;28;20062;-64
2023/03/22 04:26:47;;;;;;;4.68;2.40;;;9.90;99.90;;;;;;5003487;28;20108;-65
2023/03/22 04:29:13;;;;;;;4.45;2.65;;;9.80;99.90;;;;;;5002276;28;20033;-65
2023/03/22 04:31:39;;;;;;;4.40;2.42;;;9.70;99.90;;;;;;5003409;28;20072;-65
2023/03/22 04:34:05;;;;;;;3.92;2.60;;;9.70;99.90;;;;;;4978071;28;20033;-65
2023/03/22 04:36:35;;;;;;;5.00;2.20;;;9.60;99.90;;;;;;5003304;28;20073;-65
2023/03/22 04:39:10;;;;;;;4.45;2.40;;;9.50;99.90;;;;;;5005883;28;20064;-65
2023/03/22 04:41:37;;;;;;;7.85;2.95;;;9.50;99.90;;;;;;4985971;28;20034;-65
2023/03/22 04:44:04;;;;;;;9.05;3.65;;;9.60;99.90;;;;;;5001327;28;20069;-64
2023/03/22 04:46:34;;;;;;;4.45;2.75;;;9.50;99.90;;;;;;5003226;28;20026;-65
2023/03/22 04:49:00;;;;;;;6.00;3.30;;;9.50;99.90;;;;;;4966319;28;20498;-65
2023/03/22 04:51:26;;;;;;;8.15;2.42;;;9.50;99.90;;;;;;4956073;28;20061;-65
2023/03/22 04:53:53;;;;;;;5.35;2.75;;;9.60;99.90;;;;;;4939774;28;20090;-66
2023/03/22 04:56:20;;;;;;;6.20;2.83;;;9.60;99.90;;;;;;4987522;28;20061;-66
2023/03/22 04:58:46;;;;;;;3.08;2.30;;;9.60;99.90;;;;;;4970565;28;20041;-66
2023/03/22 05:01:15;;;;;;;6.22;2.78;;;9.60;99.90;;;;;;4997681;28;20028;-67
2023/03/22 05:03:42;;;;;;;3.85;2.10;;;9.50;99.90;;;;;;4975567;28;20683;-67
2023/03/22 05:06:09;;;;;;;5.78;3.03;;;9.50;99.90;;;;;;4995540;28;20025;-68
2023/03/22 05:08:35;;;;;;;3.85;1.92;;;9.50;99.90;;;;;;4975821;28;20061;-67
2023/03/22 05:11:08;;;;;;;5.53;2.35;;;9.50;99.90;;;;;;4997481;28;20441;-67
2023/03/22 05:13:36;;;;;;;4.50;2.30;;;9.50;99.90;;;;;;4991365;28;20049;-67
2023/03/22 05:16:04;;;;;;;3.78;2.38;;;9.50;99.90;;;;;;4978674;28;20031;-66
2023/03/22 05:18:31;;;;;;;7.00;3.08;;;9.40;99.90;;;;;;4965646;28;20098;-65
2023/03/22 05:21:02;;;;;;;4.80;2.45;;;9.40;99.90;;;;;;5001875;28;20022;-67
2023/03/22 05:23:28;;;;;;;7.05;2.88;;;9.40;99.90;;;;;;5000605;28;20041;-67
2023/03/22 05:25:57;;;;;;;8.27;3.03;;;9.40;99.90;;;;;;4984643;28;20397;-67
2023/03/22 05:28:26;;;;;;;6.93;2.97;;;9.40;99.90;;;;;;4982751;28;20041;-67
2023/03/22 05:30:51;;;;;;;3.80;2.45;;;9.40;99.90;;;;;;4973661;28;20041;-67
2023/03/22 05:33:23;;;;;;;5.30;2.42;;;9.40;99.90;;;;;;4989978;28;20034;-67
2023/03/22 05:35:49;;;;;;;5.18;2.50;;;9.30;99.90;;;;;;5002011;28;20030;-67
2023/03/22 05:38:16;;;;;;;5.40;2.58;;;9.30;99.90;;;;;;4988210;28;20118;-67
2023/03/22 05:40:43;;;;;;;4.60;2.53;;;9.20;99.90;;;;;;4983024;28;20038;-67
2023/03/22 05:43:09;;;;;;;5.90;2.42;;;9.20;99.90;;;;;;5004787;28;20026;-68
2023/03/22 05:45:36;;;;;;;5.03;2.38;;;9.20;99.90;;;;;;4980386;28;20045;-67
2023/03/22 05:48:02;;;;;;;5.03;2.70;;;9.10;99.90;;;;;;4990004;28;20638;-67
2023/03/22 05:50:28;;;;;;;5.72;2.40;;;9.10;99.90;;;;;;4980918;28;20065;-65
2023/03/22 05:52:55;;;;;;;11.52;2.55;;;9.20;99.90;;;;;;5008509;28;20405;-66
2023/03/22 05:55:22;;;;;;;5.30;2.17;;;9.20;99.90;;;;;;4996447;28;20121;-66
2023/03/22 05:57:50;;;;;;;4.05;2.53;;;9.20;99.90;;;;;;5011988;28;20117;-65
2023/03/22 06:00:17;;;;;;;3.85;2.30;;;9.20;99.90;;;;;;4988935;28;20041;-67
2023/03/22 06:02:46;;;;;;;4.68;2.60;;;9.20;99.90;;;;;;4995343;28;20062;-66
2023/03/22 06:05:16;;;;;;;4.13;2.45;;;9.30;99.90;;;;;;4981399;28;20029;-65
2023/03/22 06:07:43;;;;;;;6.80;3.17;;;9.30;99.90;;;;;;4994838;28;20034;-67
2023/03/22 06:10:13;;;;;;;4.00;2.45;;;9.20;99.90;;;;;;5001309;28;20502;-68
2023/03/22 06:12:39;;;;;;;4.78;2.42;;;9.20;99.90;;;;;;4995470;28;20038;-68
2023/03/22 06:15:07;;;;;;;8.60;3.25;;;9.20;99.90;;;;;;5006894;28;20124;-66
2023/03/22 06:17:33;;;;;;;4.97;2.88;;;9.20;99.90;;;;;;4979227;28;20196;-67
2023/03/22 06:19:59;;;;;;;4.00;2.08;;;9.10;99.90;;;;;;4980145;28;20030;-67
2023/03/22 06:22:25;;;;;;;8.82;3.28;;;9.20;99.90;;;;;;5005571;28;20069;-67
2023/03/22 06:24:51;;;;;;;7.10;2.75;;;9.10;99.90;;;;;;4997373;28;20063;-67
2023/03/22 06:27:17;;;;;;;5.97;2.55;;;9.20;99.90;;;;;;5009287;28;20077;-67
2023/03/22 06:29:48;;;;;;;4.20;2.25;;;9.30;99.90;;;;;;4986368;28;20453;-67
2023/03/22 06:32:14;;;;;;;;;;;9.30;99.90;;;;;;5009176;28;20033;-67
2023/03/22 06:34:39;;;;;;;5.38;2.60;;;9.40;99.90;;;;;;5005896;28;19914;-67
2023/03/22 06:37:05;;;;;;;4.85;3.20;;;9.40;99.90;;;;;;5007580;28;20493;-68
2023/03/22 06:39:31;;;;;;;7.65;3.45;;;9.40;99.90;;;;;;5006925;28;20514;-67
2023/03/22 06:41:57;;;;;;;5.20;3.15;;;9.50;99.90;;;;;;5006297;28;20072;-67
2023/03/22 06:44:22;;;;;;;5.13;3.05;;;9.50;99.90;;;;;;5007587;28;20049;-67
2023/03/22 06:46:48;;;;;;;7.50;2.75;;;9.50;99.90;;;;;;5004865;28;20029;-66
2023/03/22 06:49:15;;;;;;;5.97;3.08;;;9.60;99.90;;;;;;5007889;28;20076;-66
2023/03/22 06:51:41;;;;;;;5.60;2.38;;;9.60;99.90;;;;;;5005014;28;20482;-67
2023/03/22 06:54:07;;;;;;;9.77;3.03;;;9.60;99.90;;;;;;5003731;28;20036;-67
2023/03/22 06:56:32;;;;;;;6.22;2.78;;;9.70;99.90;;;;;;5004819;28;20052;-66
2023/03/22 06:58:58;;;;;;;5.40;2.83;;;9.80;99.90;;;;;;4998065;28;20032;-66
2023/03/22 07:01:25;;;;;;;9.10;3.28;;;9.90;99.90;;;;;;4996995;28;20100;-67
2023/03/22 07:03:50;;;;;;;6.25;1.95;;;10.00;99.90;;;;;;4974720;28;20021;-67
2023/03/22 07:06:16;;;;;;;10.15;2.88;;;10.10;99.90;;;;;;5004792;28;20518;-67
2023/03/22 07:08:44;;;;;;;6.07;2.90;;;10.20;99.90;;;;;;5003246;28;20055;-66
2023/03/22 07:11:10;;;;;;;4.93;2.72;;;10.40;99.90;;;;;;5004281;28;20026;-66
2023/03/22 07:13:35;;;;;;;5.82;2.00;;;10.50;99.90;;;;;;5007066;28;20093;-68
2023/03/22 07:16:02;;;;;;;6.65;2.25;;;10.50;99.90;;;;;;4984468;28;20029;-66
2023/03/22 07:18:29;;;;;;;7.38;3.20;;;10.60;99.90;;;;;;5007112;28;20568;-66
2023/03/22 07:20:55;;;;;;;3.85;1.70;;;10.80;99.90;;;;;;4986896;28;20133;-66
2023/03/22 07:23:20;;;;;;;4.15;2.03;;;10.80;99.90;;;;;;5007536;28;20518;-66
2023/03/22 07:25:47;;;;;;;4.90;2.33;;;10.90;99.90;;;;;;5003996;28;20033;-67
2023/03/22 07:28:14;;;;;;;3.67;2.05;;;10.90;99.90;;;;;;5007100;28;20058;-67
2023/03/22 07:30:40;;;;;;;6.32;2.70;;;11.00;99.90;;;;;;4986074;28;20026;-68
2023/03/22 07:33:09;;;;;;;4.28;1.98;;;11.10;99.90;;;;;;5009599;28;20041;-66
2023/03/22 07:35:36;;;;;;;3.67;1.95;;;11.10;99.90;;;;;;5002601;28;20433;-66
2023/03/22 07:38:04;;;;;;;4.55;2.47;;;11.20;99.90;;;;;;4992523;28;20029;-65
2023/03/22 07:40:30;;;;;;;2.92;1.70;;;11.20;99.90;;;;;;4983981;28;20045;-65
2023/03/22 07:42:57;;;;;;;8.88;2.42;;;11.30;99.90;;;;;;4992415;28;20034;-64
2023/03/22 07:45:24;;;;;;;7.35;2.42;;;11.40;99.90;;;;;;4980071;28;20034;-65
2023/03/22 07:47:51;;;;;;;5.60;1.70;;;11.50;99.90;;;;;;4956127;28;20031;-66
2023/03/22 07:50:17;;;;;;;3.15;1.80;;;11.50;99.90;;;;;;4963006;28;20050;-65
2023/03/22 07:52:43;;;;;;;4.00;1.98;;;11.60;99.90;;;;;;5011279;28;20469;-65
2023/03/22 07:55:12;;;;;;;4.05;2.20;;;11.70;99.90;;;;;;4978375;28;20100;-65
2023/03/22 07:57:38;;;;;;;4.18;1.77;;;11.90;99.90;;;;;;4976917;28;20041;-65
2023/03/22 08:00:09;;;;;;;6.75;2.17;;;12.00;99.90;;;;;;4995857;28;20571;-66
2023/03/22 08:02:36;;;;;;;6.00;1.83;;;12.10;99.90;;;;;;4976975;28;20048;-66
2023/03/22 08:05:02;;;;;;;6.35;2.38;;;12.10;99.90;;;;;;5000966;28;20026;-65
2023/03/22 08:07:29;;;;;;;7.57;1.83;;;12.00;99.90;;;;;;4991687;28;20030;-65
2023/03/22 08:09:55;;;;;;;4.20;2.17;;;12.10;99.90;;;;;;4984706;28;20034;-65
2023/03/22 08:12:21;;;;;;;8.73;2.33;;;12.20;99.90;;;;;;5007962;28;20026;-65
2023/03/22 08:14:49;;;;;;;2.80;1.25;;;12.40;99.90;;;;;;4985603;28;20041;-65
2023/03/22 08:17:17;;;;;;;5.88;2.22;;;12.60;99.90;;;;;;5006713;28;20033;-65
2023/03/22 08:19:43;;;;;;;1.90;1.33;;;12.60;99.90;;;;;;5003898;28;20125;-66
2023/03/22 08:22:10;;;;;;;5.90;1.48;;;12.70;99.90;;;;;;4988851;28;20065;-67
2023/03/22 08:24:37;;;;;;;5.22;1.20;;;12.90;99.90;;;;;;5003907;28;20037;-68
2023/03/22 08:27:03;;;;;;;3.90;1.63;;;13.00;99.90;;;;;;4987890;28;20071;-67
2023/03/22 08:29:28;;;;;;;1.75;1.00;;;13.10;99.90;;;;;;5003909;28;20026;-67
2023/03/22 08:31:54;;;;;;;3.45;1.20;;;13.30;99.90;;;;;;5003824;28;20044;-68
2023/03/22 08:34:20;;;;;;;1.63;0.98;;;13.40;99.90;;;;;;4988153;28;20037;-69
2023/03/22 08:36:46;;;;;;;2.05;0.98;;;13.30;99.90;;;;;;5003494;28;20033;-68
2023/03/22 08:39:12;;;;;;;10.77;1.38;;;13.50;99.90;;;;;;4988255;28;20137;-68
2023/03/22 08:41:39;;;;;;;3.17;1.35;;;13.70;99.90;;;;;;4985543;28;20033;-68
2023/03/22 08:44:05;;;;;;;1.65;0.90;;;13.80;99.90;;;;;;5005801;28;20108;-69
2023/03/22 08:46:31;;;;;;;3.80;0.85;;;13.80;99.90;;;;;;4985893;28;20103;-69
2023/03/22 08:48:59;;;;;;;4.60;0.82;;;13.90;99.90;;;;;;5005591;28;20072;-71
2023/03/22 08:51:25;;;;;;;1.67;1.00;;;14.00;99.90;;;;;;4985990;28;20413;-71
2023/03/22 08:53:51;;;;;;;9.10;1.30;;;14.20;99.90;;;;;;4994438;28;20068;-70
2023/03/22 08:56:18;;;;;;;3.13;0.88;;;14.20;99.90;;;;;;5003067;28;20062;-70
2023/03/22 08:58:45;;;;;;;3.05;1.15;;;14.20;99.90;;;;;;4985697;28;20376;-71
2023/03/22 09:01:16;;;;;;;1.20;0.90;;;14.40;99.90;;;;;;4985578;28;20417;-69
2023/03/22 09:03:42;;;;;;;1.70;0.80;;;14.30;99.90;;;;;;5004174;28;20027;-69
2023/03/22 09:06:09;;;;;;;1.48;0.70;;;14.40;99.90;;;;;;4999531;28;20034;-69
2023/03/22 09:08:35;;;;;;;2.97;1.15;;;14.40;99.90;;;;;;4969818;23;20049;-70
2023/03/22 09:11:01;;;;;;;2.03;0.80;;;14.30;99.90;;;;;;4999700;28;20043;-70
2023/03/22 09:13:29;;;;;;;2.80;1.10;;;14.30;99.90;;;;;;4991063;28;20033;-70
2023/03/22 09:15:56;;;;;;;2.40;1.20;;;14.30;99.90;;;;;;4981689;28;20105;-70
2023/03/22 09:18:23;;;;;;;8.13;1.45;;;14.30;99.90;;;;;;4973557;28;20054;-71
2023/03/22 09:20:50;;;;;;;2.85;0.80;;;14.50;99.90;;;;;;5002468;28;20037;-71
2023/03/22 09:23:16;;;;;;;2.00;0.80;;;14.70;99.90;;;;;;5007478;28;20029;-69
2023/03/22 09:25:44;;;;;;;1.73;1.00;;;14.90;99.90;;;;;;4990155;28;20525;-70
2023/03/22 09:28:10;;;;;;;1.80;0.80;;;14.90;99.90;;;;;;4988845;28;20113;-69
2023/03/22 09:30:36;;;;;;;2.72;0.55;;;14.80;99.90;;;;;;4998321;28;20504;-70
2023/03/22 09:33:02;;;;;;;1.63;0.55;;;14.90;99.90;;;;;;5010634;28;20080;-70
2023/03/22 09:35:29;;;;;;;2.78;0.60;;;15.00;99.90;;;;;;4997448;28;20569;-71
2023/03/22 09:37:57;;;;;;;3.58;0.95;;;15.00;99.90;;;;;;4993247;28;20034;-70
2023/03/22 09:40:29;;;;;;;5.65;1.25;;;15.10;99.90;;;;;;4997015;28;20089;-71
2023/03/22 09:43:02;;;;;;;4.85;1.13;;;15.20;99.90;;;;;;4954527;28;20089;-70
2023/03/22 09:45:41;;;;;;;2.45;0.40;;;15.50;99.90;;;;;;4997389;28;20027;-70
2023/03/22 09:48:27;;;;;;;2.95;0.57;;;15.20;99.90;;;;;;4992233;28;20038;-70
2023/03/22 09:50:54;;;;;;;1.08;0.47;;;15.30;99.90;;;;;;4991570;28;20096;-70
2023/03/22 09:53:25;;;;;;;1.65;0.60;;;15.50;99.90;;;;;;4971535;28;20121;-71
2023/03/22 09:56:08;;;;;;;1.98;0.68;;;15.50;99.90;;;;;;4991026;28;20038;-70
2023/03/22 09:59:07;;;;;;;2.35;0.63;;;15.40;99.90;;;;;;4976964;28;20039;-70
2023/03/22 10:02:00;;;;;;;3.00;0.88;;;15.50;99.90;;;;;;5001818;28;20493;-70
2023/03/22 10:04:42;;;;;;;1.98;0.77;;;15.30;99.90;;;;;;4987494;28;20084;-70
2023/03/22 10:07:48;;;;;;;1.80;0.60;;;15.30;99.90;;;;;;5004999;28;20042;-70
2023/03/22 10:10:18;;;;;;;0.77;0.47;;;15.30;99.90;;;;;;4965530;28;20491;-71
2023/03/22 10:13:21;;;;;;;1.52;0.75;;;15.30;99.90;;;;;;4992638;28;20037;-71
2023/03/22 10:15:54;;;;;;;0.73;0.55;;;15.30;99.90;;;;;;5001540;28;20041;-70
2023/03/22 10:18:58;;;;;;;2.10;0.60;;;15.40;99.90;;;;;;4988698;28;20069;-70
2023/03/22 10:21:25;;;;;;;1.00;0.50;;;15.30;99.90;;;;;;4982363;28;20034;-70
2023/03/22 10:24:13;;;;;;;1.20;0.60;;;15.30;99.90;;;;;;4974122;28;20575;-70
2023/03/22 10:26:44;;;;;;;1.30;0.47;;;15.10;99.90;;;;;;4985959;28;20034;-70
2023/03/22 10:29:27;;;;;;;1.80;1.20;;;15.20;99.90;;;;;;4987730;28;20026;-70
2023/03/22 10:31:54;;;;;;;2.10;0.60;;;15.30;99.90;;;;;;4995126;28;20034;-71
2023/03/22 10:34:29;;;;;;;9.23;1.02;;;15.50;99.90;;;;;;5004611;28;20521;-71
2023/03/22 10:36:59;;;;;;;1.70;0.93;;;15.60;99.90;;;;;;4978740;28;20665;-71
2023/03/22 10:39:36;;;;;;;1.80;0.65;;;15.90;99.90;;;;;;5004366;28;20116;-71
2023/03/22 10:42:07;;;;;;;0.98;0.55;;;16.00;99.90;;;;;;4989460;28;20030;-70
2023/03/22 10:44:49;;;;;;;2.42;0.73;;;16.30;99.90;;;;;;4989464;28;20109;-70
2023/03/22 10:47:41;;;;;;;1.65;1.23;;;16.40;99.90;;;;;;4992229;28;20437;-70
2023/03/22 10:50:21;;;;;;;2.67;1.13;;;16.40;99.90;;;;;;4981293;28;20084;-69
2023/03/22 10:53:25;;;;;;;1.83;0.65;;;16.60;99.90;;;;;;4996883;28;20116;-70
2023/03/22 10:55:51;;;;;;;0.35;0.30;;;16.50;99.90;;;;;;4979299;28;20430;-71
2023/03/22 10:58:20;;;;;;;1.17;0.45;;;16.70;99.90;;;;;;4977016;28;20027;-70
2023/03/22 11:00:58;;;;;;;5.00;1.08;;;16.70;99.90;;;;;;4994085;28;20037;-71
2023/03/22 11:03:43;;;;;;;14.32;0.68;;;16.90;99.90;;;;;;4991886;28;21030;-70
2023/03/22 11:06:16;;;;;;;0.63;0.40;;;16.60;99.90;;;;;;4984338;28;20128;-70
2023/03/22 11:08:51;;;;;;;0.82;0.50;;;16.80;99.90;;;;;;4976054;28;20138;-70
2023/03/22 11:11:25;;;;;;;1.30;0.70;;;16.60;99.90;;;;;;4987726;28;20033;-70
2023/03/22 11:14:40;;;;;;;1.60;0.70;;;16.70;99.90;;;;;;4989801;28;20034;-70
2023/03/22 11:17:19;;;;;;;4.40;1.27;;;17.10;99.90;;;;;;4987304;28;20045;-69
2023/03/22 11:19:59;;;;;;;4.63;1.05;;;17.20;99.90;;;;;;4998317;28;20845;-70
2023/03/22 11:22:49;;;;;;;4.57;0.70;;;17.70;99.90;;;;;;4992357;28;20065;-71
2023/03/22 11:25:28;;;;;;;2.67;0.93;;;17.90;99.90;;;;;;5000179;28;20478;-70
2023/03/22 11:28:02;;;;;;;5.03;1.27;;;17.90;99.90;;;;;;4959129;28;20468;-71
2023/03/22 11:30:30;;;;;;;5.88;1.27;;;17.70;99.90;;;;;;4982196;28;20406;-70
2023/03/22 11:33:29;;;;;;;1.55;0.60;;;17.90;99.90;;;;;;5012132;28;20385;-71
2023/03/22 11:35:59;;;;;;;7.60;0.70;;;18.00;99.40;;;;;;4984980;28;20099;-69
2023/03/22 11:38:38;;;;;;;1.25;0.55;;;18.40;99.00;;;;;;4973360;28;20092;-70
2023/03/22 11:41:15;;;;;;;5.10;0.88;;;18.70;97.70;;;;;;5004203;28;20117;-70
2023/03/22 11:43:47;;;;;;;0.60;0.40;;;18.50;99.10;;;;;;4990186;28;20027;-71
2023/03/22 11:46:18;;;;;;;1.55;0.70;;;18.60;99.20;;;;;;4986958;28;20474;-70
2023/03/22 11:48:46;;;;;;;2.33;1.00;;;19.00;97.70;;;;;;5005498;28;20037;-70
2023/03/22 11:51:24;;;;;;;1.13;0.68;;;19.10;97.30;;;;;;4986731;28;20393;-71
2023/03/22 11:54:00;;;;;;;1.45;0.63;;;19.40;97.50;;;;;;5005727;28;20306;-71
2023/03/22 11:56:29;;;;;;;2.95;0.57;;;19.40;97.10;;;;;;4987360;28;20057;-71
2023/03/22 11:59:12;;;;;;;4.10;0.88;;;19.40;96.90;;;;;;4989040;28;20139;-71
2023/03/22 12:02:03;;;;;;;5.68;1.50;;;19.80;97.20;;;;;;5003898;28;20034;-71
2023/03/22 12:04:33;;;;;;;;;;;19.70;95.90;;;;;;4989443;28;20038;-71
2023/03/22 12:07:04;;;;;;;2.38;0.77;;;20.40;94.80;;;;;;4994851;28;19996;-71
2023/03/22 12:09:58;;;;;;;1.75;0.70;;;19.90;94.70;;;;;;4988369;28;20382;-71
2023/03/22 12:12:33;;;;;;;2.08;0.70;;;19.70;94.70;;;;;;5007113;28;20458;-70
2023/03/22 12:15:14;;;;;;;0.63;0.55;;;19.90;94.90;;;;;;5001046;28;20060;-70
2023/03/22 12:18:14;;;;;;;;;;;20.50;94.20;;;;;;4993975;28;20060;-70
2023/03/22 12:20:57;;;;;;;1.65;0.60;;;20.80;94.20;;;;;;4976833;28;19917;-70
2023/03/22 12:23:36;;;;;;;0.30;0.30;;;20.30;93.80;;;;;;4988984;28;20084;-70
2023/03/22 12:26:05;;;;;;;10.30;0.80;;;20.30;93.80;;;;;;4977864;28;20018;-70
2023/03/22 12:28:52;;;;;;;0.68;0.30;;;21.20;93.00;;;;;;4989737;28;20034;-71
2023/03/22 12:31:29;;;;;;;2.05;0.75;;;22.00;92.30;;;;;;5003258;28;20042;-70
2023/03/22 12:34:14;;;;;;;7.15;0.47;;;22.30;91.40;;;;;;4988612;28;20437;-70
2023/03/22 12:36:48;;;;;;;2.33;0.65;;;21.50;92.50;;;;;;4986637;28;20034;-70
2023/03/22 12:39:41;;;;;;;1.02;0.38;;;21.20;92.30;;;;;;4972793;28;20045;-70
2023/03/22 12:42:39;;;;;;;1.45;0.40;;;22.00;91.20;;;;;;4999991;28;20117;-70
2023/03/22 12:45:17;;;;;;;0.93;0.50;;;20.30;92.90;;;;;;4999596;28;20034;-71
2023/03/22 12:47:54;;;;;;;1.75;0.50;;;20.40;92.60;;;;;;4993169;28;20564;-70
2023/03/22 12:50:27;;;;;;;6.35;0.70;;;20.90;91.90;;;;;;4981250;28;20042;-70
2023/03/22 12:52:55;;;;;;;5.45;0.57;;;21.40;90.80;;;;;;4972171;28;20109;-70
2023/03/22 12:55:35;;;;;;;6.70;0.45;;;21.50;89.50;;;;;;4996039;28;20452;-69
2023/03/22 13:00:47;;;;;;;3.17;0.40;;;21.20;86.60;;;;;;5123125;23;20100;-71
2023/03/22 13:03:18;;;;;;;0.30;0.20;;;20.80;85.60;;;;;;4977056;28;20116;-71
2023/03/22 13:05:47;;;;;;;4.00;1.08;;;20.30;85.60;;;;;;5001085;28;20022;-71
2023/03/22 13:08:20;;;;;;;1.75;0.40;;;19.90;87.00;;;;;;4991494;28;20485;-71
2023/03/22 13:11:03;;;;;;;0.20;0.20;;;20.00;87.80;;;;;;4998784;28;20540;-71
2023/03/22 13:13:47;;;;;;;1.10;0.30;;;19.40;88.50;;;;;;4990670;28;20493;-71
2023/03/22 13:16:21;;;;;;;2.20;0.30;;;19.30;88.40;;;;;;4995560;28;20081;-71
2023/03/22 13:18:46;;;;;;;0.60;0.25;;;19.20;89.40;;;;;;4945500;28;20481;-71
2023/03/22 13:21:26;;;;;;;0.77;0.47;;;19.30;88.40;;;;;;5002251;28;20049;-71